Time;durP1;ratioP1;P1;durP2;ratioP2;P2;SDS_P1;SDS_P2;PMS_P1;PMS_P2;Temp;Humidity;BMP_temperature;BMP_pressure;BME280_temperature;BME280_humidity;BME280_pressure;Samples;Min_cycle;Max_cycle;Signal;HPM_P1;HPM_P2
2022/11/27 00:01:21;;;;;;;10.53;7.60;;;6.90;99.90;;;;;;7388927;19;20171;-81
2022/11/27 00:03:47;;;;;;;12.23;8.17;;;6.90;99.90;;;;;;7384427;19;20232;-83
2022/11/27 00:06:15;;;;;;;14.00;8.47;;;6.90;99.90;;;;;;7388484;19;20871;-80
2022/11/27 00:08:41;;;;;;;13.23;8.50;;;6.90;99.90;;;;;;7398184;19;20139;-81
2022/11/27 00:11:10;;;;;;;13.47;7.90;;;7.00;99.90;;;;;;7395299;19;20603;-84
2022/11/27 00:13:36;;;;;;;14.10;8.10;;;7.00;99.90;;;;;;7397441;19;20166;-82
2022/11/27 00:16:03;;;;;;;10.53;7.20;;;7.00;99.90;;;;;;7388735;19;20540;-81
2022/11/27 00:18:29;;;;;;;12.87;7.57;;;6.90;99.90;;;;;;7388792;19;20139;-81
2022/11/27 00:20:55;;;;;;;12.20;7.47;;;6.90;99.90;;;;;;7394278;19;20135;-82
2022/11/27 00:23:20;;;;;;;9.43;7.30;;;6.90;99.90;;;;;;7395449;19;20159;-80
2022/11/27 00:25:53;;;;;;;10.57;7.13;;;6.80;99.90;;;;;;7395185;19;20135;-84
2022/11/27 00:28:19;;;;;;;11.90;6.57;;;6.80;99.90;;;;;;7396821;19;20134;-78
2022/11/27 00:30:45;;;;;;;10.40;7.30;;;6.80;99.90;;;;;;7393038;19;20129;-80
2022/11/27 00:33:12;;;;;;;11.20;6.43;;;6.70;99.90;;;;;;7396187;19;20126;-83
2022/11/27 00:35:38;;;;;;;12.33;7.10;;;6.70;99.90;;;;;;7390488;19;20172;-81
2022/11/27 00:38:05;;;;;;;11.40;6.87;;;6.70;99.90;;;;;;7391958;19;20663;-81
2022/11/27 00:40:30;;;;;;;9.40;6.70;;;6.70;99.90;;;;;;7392507;19;20856;-81
2022/11/27 00:42:56;;;;;;;10.20;7.88;;;6.80;99.90;;;;;;7391973;19;20447;-83
2022/11/27 00:45:22;;;;;;;9.63;6.03;;;6.70;99.90;;;;;;7396639;19;20224;-82
2022/11/27 00:47:50;;;;;;;9.30;6.53;;;6.70;99.90;;;;;;7399983;19;20578;-84
2022/11/27 00:50:15;;;;;;;6.80;5.30;;;6.60;99.90;;;;;;7399127;19;20146;-83
2022/11/27 00:52:42;;;;;;;10.67;5.50;;;6.90;99.90;;;;;;7399427;19;20131;-87
2022/11/27 00:55:08;;;;;;;10.77;5.77;;;6.80;99.90;;;;;;7395464;19;20183;-85
2022/11/27 00:57:34;;;;;;;8.30;5.87;;;6.60;99.90;;;;;;7401721;19;20139;-86
2022/11/27 01:00:00;;;;;;;9.40;6.80;;;6.70;99.90;;;;;;7399285;19;20149;-85
2022/11/27 01:02:25;;;;;;;11.17;6.47;;;6.70;99.90;;;;;;7400640;19;20131;-85
2022/11/27 01:04:51;;;;;;;11.20;6.70;;;6.70;99.90;;;;;;7398877;19;20131;-86
2022/11/27 01:07:17;;;;;;;11.33;7.53;;;6.80;99.90;;;;;;7400771;19;20555;-85
2022/11/27 01:09:42;;;;;;;11.43;7.47;;;6.70;99.90;;;;;;7399476;19;20506;-84
2022/11/27 01:12:08;;;;;;;11.00;7.47;;;6.40;99.90;;;;;;7397562;19;20564;-86
2022/11/27 01:14:34;;;;;;;14.00;7.73;;;6.50;99.90;;;;;;7399007;19;20171;-85
2022/11/27 01:17:00;;;;;;;13.80;7.90;;;6.50;99.90;;;;;;7400486;19;20625;-85
2022/11/27 01:19:26;;;;;;;13.47;7.83;;;6.60;99.90;;;;;;7399876;19;20134;-85
2022/11/27 01:21:52;;;;;;;10.80;8.10;;;6.40;99.90;;;;;;7399188;19;20163;-86
2022/11/27 01:24:17;;;;;;;10.67;6.97;;;6.10;99.90;;;;;;7396925;19;20147;-85
2022/11/27 01:26:43;;;;;;;12.60;7.40;;;6.10;99.90;;;;;;7399968;19;20242;-85
2022/11/27 01:29:10;;;;;;;10.37;6.87;;;6.30;99.90;;;;;;7400260;19;20165;-85
2022/11/27 01:31:36;;;;;;;11.47;7.20;;;6.30;99.90;;;;;;7400440;19;20175;-84
2022/11/27 01:34:06;;;;;;;9.83;6.70;;;6.40;99.90;;;;;;7399043;19;20510;-85
2022/11/27 01:36:33;;;;;;;11.10;6.53;;;6.50;99.90;;;;;;7399258;19;20139;-86
2022/11/27 01:38:59;;;;;;;11.80;6.93;;;6.50;99.90;;;;;;7399093;19;20159;-85
2022/11/27 01:41:34;;;;;;;12.53;7.23;;;6.50;99.90;;;;;;7401396;19;20630;-83
2022/11/27 01:44:23;;;;;;;8.43;6.60;;;6.50;99.90;;;;;;7395991;19;20648;-85
2022/11/27 01:47:05;;;;;;;10.07;6.60;;;6.50;99.90;;;;;;7395464;19;20211;-85
2022/11/27 01:49:39;;;;;;;10.23;7.23;;;6.50;99.90;;;;;;7398970;19;20164;-84
2022/11/27 01:52:19;;;;;;;9.53;6.80;;;6.50;99.90;;;;;;7399102;19;20142;-86
2022/11/27 01:55:08;;;;;;;8.27;6.30;;;6.50;99.90;;;;;;7396824;19;20151;-86
2022/11/27 01:57:41;;;;;;;10.63;6.77;;;6.50;99.90;;;;;;7396650;19;20149;-85
2022/11/27 02:00:09;;;;;;;10.60;6.53;;;6.60;99.90;;;;;;7397808;19;20146;-85
2022/11/27 02:02:35;;;;;;;7.90;5.70;;;6.50;99.90;;;;;;7396767;19;20147;-85
2022/11/27 02:05:00;;;;;;;10.30;6.50;;;6.50;99.90;;;;;;7397178;19;20135;-85
2022/11/27 02:07:26;;;;;;;8.53;6.77;;;5.70;99.90;;;;;;7396370;19;20135;-85
2022/11/27 02:09:52;;;;;;;10.50;6.50;;;6.00;99.90;;;;;;7398287;19;20476;-86
2022/11/27 02:12:38;;;;;;;8.97;6.63;;;6.10;99.90;;;;;;7395548;19;20151;-85
2022/11/27 02:15:13;;;;;;;9.87;7.10;;;6.10;99.90;;;;;;7396957;19;20134;-86
2022/11/27 02:17:45;;;;;;;9.53;6.20;;;6.10;99.90;;;;;;7398598;19;20150;-85
2022/11/27 02:20:19;;;;;;;10.83;6.67;;;5.90;99.90;;;;;;7399959;19;20576;-85
2022/11/27 02:22:59;;;;;;;9.13;6.37;;;5.80;99.90;;;;;;7394287;19;20159;-84
2022/11/27 02:25:45;;;;;;;8.53;6.63;;;6.00;99.90;;;;;;7397388;19;20496;-85
2022/11/27 02:28:39;;;;;;;9.73;6.30;;;6.00;99.90;;;;;;7396200;19;20142;-85
2022/11/27 02:31:33;;;;;;;8.93;5.07;;;6.00;99.90;;;;;;7395454;19;20167;-85
2022/11/27 02:34:09;;;;;;;8.03;5.43;;;6.20;99.90;;;;;;7397070;19;20163;-85
2022/11/27 02:36:39;;;;;;;8.37;5.43;;;6.20;99.90;;;;;;7397712;19;20130;-86
2022/11/27 02:39:12;;;;;;;7.23;5.97;;;6.30;99.90;;;;;;7395567;19;20162;-85
2022/11/27 02:41:48;;;;;;;9.13;5.43;;;6.20;99.90;;;;;;7398510;19;20130;-86
2022/11/27 02:44:17;;;;;;;5.77;4.83;;;6.20;99.90;;;;;;7395972;19;20213;-85
2022/11/27 02:46:45;;;;;;;8.30;5.27;;;6.20;99.90;;;;;;7394898;19;20163;-85
2022/11/27 02:49:15;;;;;;;7.17;4.70;;;6.30;99.90;;;;;;7395310;19;20140;-85
2022/11/27 02:51:46;;;;;;;9.93;5.10;;;6.30;99.90;;;;;;7396431;19;20149;-84
2022/11/27 02:54:17;;;;;;;7.07;4.63;;;6.30;99.90;;;;;;7396775;19;20631;-85
2022/11/27 02:56:47;;;;;;;8.87;5.03;;;6.40;99.90;;;;;;7395147;19;20138;-85
2022/11/27 02:59:15;;;;;;;7.80;5.20;;;6.20;99.90;;;;;;7395277;19;20145;-86
2022/11/27 03:01:49;;;;;;;6.27;5.03;;;6.30;99.90;;;;;;7396547;19;20166;-86
2022/11/27 03:04:27;;;;;;;8.23;5.20;;;6.40;99.90;;;;;;7393809;19;20142;-85
2022/11/27 03:06:57;;;;;;;7.80;4.70;;;6.40;99.90;;;;;;7396346;19;20142;-86
2022/11/27 03:09:33;;;;;;;7.53;5.27;;;6.30;99.90;;;;;;7394983;19;20151;-86
2022/11/27 03:11:59;;;;;;;5.80;4.20;;;6.20;99.90;;;;;;7395196;19;20162;-85
2022/11/27 03:14:25;;;;;;;7.33;4.73;;;6.30;99.90;;;;;;7394444;19;20139;-86
2022/11/27 03:17:25;;;;;;;8.23;5.47;;;6.40;99.90;;;;;;7394728;19;20141;-84
2022/11/27 03:19:59;;;;;;;8.53;6.33;;;6.40;99.90;;;;;;7396115;19;20214;-86
2022/11/27 03:22:26;;;;;;;7.97;5.03;;;6.30;99.90;;;;;;7394751;19;20655;-85
2022/11/27 03:24:53;;;;;;;8.93;6.27;;;6.30;99.90;;;;;;7394224;19;20595;-85
2022/11/27 03:27:24;;;;;;;9.57;6.30;;;6.30;99.90;;;;;;7394967;19;20607;-84
2022/11/27 03:29:56;;;;;;;11.40;6.40;;;5.70;99.90;;;;;;7392261;19;20150;-85
2022/11/27 03:32:22;;;;;;;10.67;7.07;;;5.60;99.90;;;;;;7395542;19;20161;-84
2022/11/27 03:34:49;;;;;;;9.50;6.70;;;5.90;99.90;;;;;;7395124;19;20948;-85
2022/11/27 03:37:16;;;;;;;11.57;6.37;;;5.90;99.90;;;;;;7394531;19;20147;-86
2022/11/27 03:39:42;;;;;;;10.10;6.33;;;6.00;99.90;;;;;;7396826;19;20198;-85
2022/11/27 03:42:14;;;;;;;8.10;5.73;;;5.80;99.90;;;;;;7400666;19;20171;-86
2022/11/27 03:44:48;;;;;;;10.07;6.13;;;5.30;99.90;;;;;;7403165;19;20127;-84
2022/11/27 03:47:28;;;;;;;7.23;5.80;;;5.10;99.90;;;;;;7403712;19;20134;-84
2022/11/27 03:50:02;;;;;;;8.00;5.80;;;5.00;99.90;;;;;;7402487;19;20190;-86
2022/11/27 03:53:08;;;;;;;9.30;6.10;;;5.30;99.90;;;;;;7404068;19;20149;-86
2022/11/27 03:55:52;;;;;;;9.57;6.30;;;5.60;99.90;;;;;;7400230;19;20190;-86
2022/11/27 03:58:23;;;;;;;9.27;6.73;;;5.50;99.90;;;;;;7404017;19;20130;-85
2022/11/27 04:00:50;;;;;;;8.27;5.80;;;4.90;99.90;;;;;;7404525;19;20138;-85
2022/11/27 04:03:24;;;;;;;8.70;6.33;;;4.70;99.90;;;;;;7402725;19;20135;-84
2022/11/27 04:05:50;;;;;;;8.27;5.87;;;5.20;99.90;;;;;;7403853;19;20146;-86
2022/11/27 04:08:16;;;;;;;9.20;6.30;;;5.40;99.90;;;;;;7404070;19;20154;-85
2022/11/27 04:10:42;;;;;;;9.63;6.07;;;5.70;99.90;;;;;;7403506;19;20142;-84
2022/11/27 04:13:08;;;;;;;9.57;6.17;;;5.20;99.90;;;;;;7406505;19;20127;-85
2022/11/27 04:15:34;;;;;;;9.60;5.97;;;5.30;99.90;;;;;;7406438;19;20131;-84
2022/11/27 04:17:59;;;;;;;9.20;6.03;;;4.40;99.90;;;;;;7402803;19;20166;-85
2022/11/27 04:20:25;;;;;;;9.20;6.40;;;4.80;99.90;;;;;;7401871;19;20131;-87
2022/11/27 04:22:51;;;;;;;7.53;5.83;;;5.10;99.90;;;;;;7400699;19;20143;-85
2022/11/27 04:25:17;;;;;;;8.27;5.93;;;4.90;99.90;;;;;;7400364;19;20205;-85
2022/11/27 04:27:43;;;;;;;7.63;5.33;;;5.20;99.90;;;;;;7400231;19;20148;-87
2022/11/27 04:30:09;;;;;;;9.73;5.80;;;5.40;99.90;;;;;;7401184;19;20658;-87
2022/11/27 04:32:34;;;;;;;8.87;6.40;;;5.60;99.90;;;;;;7401954;19;20147;-86
2022/11/27 04:35:00;;;;;;;7.60;5.90;;;5.50;99.90;;;;;;7402327;19;20666;-87
2022/11/27 04:37:26;;;;;;;9.07;5.93;;;5.60;99.90;;;;;;7400699;19;20257;-86
2022/11/27 04:39:52;;;;;;;7.80;6.00;;;5.60;99.90;;;;;;7400826;19;20127;-85
2022/11/27 04:42:17;;;;;;;8.60;5.63;;;5.60;99.90;;;;;;7400033;19;20184;-84
2022/11/27 04:44:43;;;;;;;9.63;5.93;;;5.60;99.90;;;;;;7401353;19;20138;-86
2022/11/27 04:47:09;;;;;;;10.97;6.60;;;5.50;99.90;;;;;;7400743;19;20227;-85
2022/11/27 04:49:35;;;;;;;8.23;6.03;;;5.60;99.90;;;;;;7399052;19;20491;-85
2022/11/27 04:52:00;;;;;;;7.63;5.53;;;5.60;99.90;;;;;;7400073;19;20147;-86
2022/11/27 04:54:26;;;;;;;7.43;5.60;;;4.90;99.90;;;;;;7397936;19;20143;-85
2022/11/27 04:56:52;;;;;;;7.50;5.73;;;4.30;99.90;;;;;;7398271;19;20250;-85
2022/11/27 04:59:18;;;;;;;8.13;5.80;;;3.70;99.90;;;;;;7398715;19;20142;-86
2022/11/27 05:01:43;;;;;;;8.00;5.90;;;4.10;99.90;;;;;;7402053;19;20141;-86
2022/11/27 05:04:09;;;;;;;12.40;6.90;;;4.50;99.90;;;;;;7396618;19;20168;-86
2022/11/27 05:06:35;;;;;;;7.67;5.67;;;4.80;99.90;;;;;;7400694;19;20127;-86
2022/11/27 05:09:01;;;;;;;6.87;5.70;;;5.10;99.90;;;;;;7398563;19;20155;-87
2022/11/27 05:11:28;;;;;;;7.83;5.87;;;5.20;99.90;;;;;;7399272;19;20150;-85
2022/11/27 05:14:13;;;;;;;7.83;6.27;;;5.30;99.90;;;;;;7398447;19;20131;-87
2022/11/27 05:17:00;;;;;;;8.60;5.80;;;5.30;99.90;;;;;;7400298;19;20143;-86
2022/11/27 05:19:28;;;;;;;7.53;5.40;;;5.40;99.90;;;;;;7398693;19;20586;-86
2022/11/27 05:21:54;;;;;;;8.10;5.50;;;4.90;99.90;;;;;;7398775;19;20142;-85
2022/11/27 05:24:22;;;;;;;8.77;6.43;;;5.00;99.90;;;;;;7396534;19;20463;-86
2022/11/27 05:26:48;;;;;;;10.03;5.93;;;4.60;99.90;;;;;;7399226;19;20154;-86
2022/11/27 05:29:14;;;;;;;9.43;6.10;;;5.00;99.90;;;;;;7397773;19;20134;-87
2022/11/27 05:31:40;;;;;;;11.67;5.67;;;4.70;99.90;;;;;;7396869;19;20135;-86
2022/11/27 05:34:07;;;;;;;8.73;6.03;;;4.80;99.90;;;;;;7398736;19;20317;-87
2022/11/27 05:36:33;;;;;;;10.07;6.93;;;5.00;99.90;;;;;;7398791;19;20138;-86
2022/11/27 05:38:59;;;;;;;10.90;6.30;;;5.10;99.90;;;;;;7398970;19;20143;-86
2022/11/27 05:41:25;;;;;;;9.17;6.13;;;4.60;99.90;;;;;;7398620;19;20198;-83
2022/11/27 05:43:51;;;;;;;9.23;6.23;;;4.70;99.90;;;;;;7397350;19;20154;-84
2022/11/27 05:46:20;;;;;;;7.70;5.87;;;4.70;99.90;;;;;;7398619;19;20138;-85
2022/11/27 05:48:46;;;;;;;8.43;5.80;;;4.90;99.90;;;;;;7398408;19;20547;-85
2022/11/27 05:51:13;;;;;;;8.47;5.47;;;4.20;99.90;;;;;;7396541;19;20622;-85
2022/11/27 05:53:39;;;;;;;7.20;5.60;;;4.50;99.90;;;;;;7397238;19;20147;-83
2022/11/27 05:56:10;;;;;;;8.67;6.27;;;4.70;99.90;;;;;;7396621;19;20206;-84
2022/11/27 05:58:37;;;;;;;8.30;5.97;;;4.90;99.90;;;;;;7399349;19;20174;-86
2022/11/27 06:01:04;;;;;;;7.37;5.83;;;5.00;99.90;;;;;;7396259;19;20131;-85
2022/11/27 06:03:30;;;;;;;7.20;5.37;;;5.00;99.90;;;;;;7394944;19;20214;-85
2022/11/27 06:05:56;;;;;;;10.27;6.27;;;4.90;99.90;;;;;;7396530;19;20146;-85
2022/11/27 06:08:22;;;;;;;8.43;5.73;;;5.10;99.90;;;;;;7399406;19;20474;-85
2022/11/27 06:10:48;;;;;;;8.90;5.70;;;5.10;99.90;;;;;;7397567;19;20138;-85
2022/11/27 06:13:14;;;;;;;10.60;6.07;;;5.00;99.90;;;;;;7398064;19;20143;-85
2022/11/27 06:15:40;;;;;;;9.07;5.77;;;4.80;99.90;;;;;;7397752;19;20153;-86
2022/11/27 06:18:07;;;;;;;7.73;6.20;;;5.00;99.90;;;;;;7397656;19;20147;-86
2022/11/27 06:20:32;;;;;;;8.83;5.77;;;5.00;99.90;;;;;;7397069;19;20138;-87
2022/11/27 06:22:58;;;;;;;9.37;5.73;;;5.20;99.90;;;;;;7397570;19;20139;-87
2022/11/27 06:25:25;;;;;;;7.93;5.93;;;5.10;99.90;;;;;;7398129;19;20157;-87
2022/11/27 06:27:51;;;;;;;7.83;5.43;;;5.00;99.90;;;;;;7396267;19;20198;-86
2022/11/27 06:30:17;;;;;;;8.63;6.07;;;4.50;99.90;;;;;;7398744;19;20658;-86
2022/11/27 06:32:43;;;;;;;8.27;5.77;;;4.00;99.90;;;;;;7398931;19;20138;-88
2022/11/27 06:35:09;;;;;;;7.13;5.70;;;4.20;99.90;;;;;;7399409;19;20540;-87
2022/11/27 06:37:35;;;;;;;7.43;5.37;;;4.60;99.90;;;;;;7397516;19;20174;-88
2022/11/27 06:40:01;;;;;;;7.20;5.53;;;4.90;99.90;;;;;;7397517;19;20134;-87
2022/11/27 06:42:30;;;;;;;7.23;5.20;;;5.10;99.90;;;;;;7395750;19;20177;-85
2022/11/27 06:44:56;;;;;;;6.77;5.20;;;5.10;99.90;;;;;;7397521;19;20624;-84
2022/11/27 06:47:22;;;;;;;8.60;5.60;;;4.90;99.90;;;;;;7396004;19;20165;-87
2022/11/27 06:49:48;;;;;;;6.87;5.40;;;4.90;99.90;;;;;;7396877;19;20143;-87
2022/11/27 06:52:14;;;;;;;7.47;5.80;;;5.10;99.90;;;;;;7398620;19;20209;-86
2022/11/27 06:54:40;;;;;;;6.47;5.53;;;5.20;99.90;;;;;;7396655;19;20174;-86
2022/11/27 06:57:06;;;;;;;7.87;5.40;;;5.00;99.90;;;;;;7396171;19;20170;-86
2022/11/27 06:59:31;;;;;;;9.60;5.80;;;4.70;99.90;;;;;;7395534;19;20150;-86
2022/11/27 07:01:57;;;;;;;8.13;5.73;;;5.00;99.90;;;;;;7394870;19;20127;-85
2022/11/27 07:04:23;;;;;;;8.60;5.77;;;4.70;99.90;;;;;;7394670;19;20623;-85
2022/11/27 07:06:49;;;;;;;8.63;6.13;;;4.50;99.90;;;;;;7396501;19;20159;-86
2022/11/27 07:09:14;;;;;;;8.27;5.60;;;3.90;99.90;;;;;;7394914;19;20588;-85
2022/11/27 07:11:40;;;;;;;8.47;6.47;;;4.30;99.90;;;;;;7394579;19;20142;-84
2022/11/27 07:14:07;;;;;;;7.47;5.97;;;3.80;99.90;;;;;;7396014;19;20146;-86
2022/11/27 07:16:35;;;;;;;8.00;5.93;;;4.20;99.90;;;;;;7400137;19;20154;-85
2022/11/27 07:19:03;;;;;;;9.60;5.87;;;4.70;99.90;;;;;;7405618;19;20635;-86
2022/11/27 07:21:30;;;;;;;8.00;5.10;;;4.80;99.90;;;;;;7403527;19;20134;-85
2022/11/27 07:23:56;;;;;;;8.83;5.60;;;4.10;99.90;;;;;;7399591;19;20202;-87
2022/11/27 07:26:27;;;;;;;8.23;5.97;;;4.40;99.90;;;;;;7401811;19;20581;-88
2022/11/27 07:28:53;;;;;;;10.13;6.60;;;5.10;99.90;;;;;;7405300;19;20154;-87
2022/11/27 07:31:27;;;;;;;8.83;5.83;;;4.90;99.90;;;;;;7403540;19;20174;-85
2022/11/27 07:33:53;;;;;;;9.33;5.47;;;4.90;99.90;;;;;;7403897;19;20138;-86
2022/11/27 07:36:21;;;;;;;6.83;5.23;;;5.00;99.90;;;;;;7402768;19;20606;-85
2022/11/27 07:38:47;;;;;;;6.43;4.90;;;5.10;99.90;;;;;;7400578;19;20465;-84
2022/11/27 07:41:14;;;;;;;7.40;5.60;;;5.00;99.90;;;;;;7399591;19;20147;-85
2022/11/27 07:43:41;;;;;;;6.97;5.00;;;4.10;99.90;;;;;;7398945;19;20177;-83
2022/11/27 07:46:11;;;;;;;5.27;4.57;;;3.70;99.90;;;;;;7400537;19;20150;-84
2022/11/27 07:48:37;;;;;;;5.57;4.57;;;3.80;99.90;;;;;;7401975;19;20139;-85
2022/11/27 07:51:10;;;;;;;6.50;4.83;;;4.30;99.90;;;;;;7400289;19;20135;-85
2022/11/27 07:53:38;;;;;;;7.03;4.80;;;4.80;99.90;;;;;;7402402;19;20506;-85
2022/11/27 07:56:05;;;;;;;6.77;5.23;;;4.90;99.90;;;;;;7399542;19;20150;-84
2022/11/27 07:58:31;;;;;;;7.23;4.77;;;4.90;99.90;;;;;;7400802;19;20495;-82
2022/11/27 08:00:57;;;;;;;5.97;4.93;;;4.90;99.90;;;;;;7400910;19;20151;-85
2022/11/27 08:03:23;;;;;;;7.13;4.50;;;4.60;99.90;;;;;;7401521;19;20202;-84
2022/11/27 08:05:49;;;;;;;6.93;4.93;;;4.10;99.90;;;;;;7398794;19;20164;-83
2022/11/27 08:08:15;;;;;;;7.20;4.63;;;4.20;99.90;;;;;;7402702;19;20139;-83
2022/11/27 08:10:41;;;;;;;5.90;4.67;;;4.30;99.90;;;;;;7398910;19;20142;-82
2022/11/27 08:13:07;;;;;;;7.50;5.13;;;4.60;99.90;;;;;;7400667;19;20254;-83
2022/11/27 08:15:33;;;;;;;5.30;4.67;;;4.70;99.90;;;;;;7400570;19;20178;-82
2022/11/27 08:17:59;;;;;;;7.73;5.07;;;4.30;99.90;;;;;;7399698;19;20147;-86
2022/11/27 08:20:25;;;;;;;6.13;4.70;;;4.60;99.90;;;;;;7399374;19;20606;-84
2022/11/27 08:22:51;;;;;;;5.87;4.77;;;4.90;99.90;;;;;;7397629;19;20225;-80
2022/11/27 08:25:19;;;;;;;6.17;5.10;;;4.80;99.90;;;;;;7399618;19;20162;-85
2022/11/27 08:27:47;;;;;;;6.33;5.03;;;4.50;99.90;;;;;;7399066;19;20179;-84
2022/11/27 08:30:13;;;;;;;6.63;5.03;;;4.60;99.90;;;;;;7401194;19;20521;-85
2022/11/27 08:32:41;;;;;;;8.27;5.97;;;4.90;99.90;;;;;;7400784;19;20151;-84
2022/11/27 08:35:08;;;;;;;6.50;5.20;;;5.10;99.90;;;;;;7401970;19;20574;-85
2022/11/27 08:37:34;;;;;;;6.80;4.90;;;5.20;99.90;;;;;;7402187;19;20142;-85
2022/11/27 08:40:00;;;;;;;7.20;4.83;;;5.30;99.90;;;;;;7401368;19;20151;-85
2022/11/27 08:42:25;;;;;;;8.07;5.10;;;5.40;99.90;;;;;;7399561;19;20166;-84
2022/11/27 08:44:51;;;;;;;8.83;5.07;;;5.50;99.90;;;;;;7401315;19;20610;-86
2022/11/27 08:47:17;;;;;;;6.67;5.27;;;5.60;99.90;;;;;;7401041;19;20583;-85
2022/11/27 08:49:43;;;;;;;7.70;4.83;;;5.50;99.90;;;;;;7401919;19;20127;-84
2022/11/27 08:52:09;;;;;;;5.83;4.60;;;4.90;99.90;;;;;;7400498;19;20142;-85
2022/11/27 08:54:35;;;;;;;6.60;5.30;;;4.90;99.90;;;;;;7402566;19;20146;-84
2022/11/27 08:57:01;;;;;;;6.37;5.17;;;5.10;99.90;;;;;;7400443;19;20122;-84
2022/11/27 08:59:27;;;;;;;6.83;5.30;;;5.40;99.90;;;;;;7400067;19;20650;-85
2022/11/27 09:01:53;;;;;;;7.60;5.53;;;5.60;99.90;;;;;;7400602;19;20134;-85
2022/11/27 09:04:19;;;;;;;7.23;4.97;;;5.70;99.90;;;;;;7398999;19;20202;-83
2022/11/27 09:06:44;;;;;;;8.27;4.87;;;5.60;99.90;;;;;;7399354;19;20130;-85
2022/11/27 09:09:10;;;;;;;6.13;4.70;;;5.50;99.90;;;;;;7400679;19;20626;-85
2022/11/27 09:11:36;;;;;;;7.40;4.97;;;5.70;99.90;;;;;;7398588;19;20214;-83
2022/11/27 09:14:04;;;;;;;5.07;4.50;;;6.00;99.90;;;;;;7399745;19;20147;-84
2022/11/27 09:16:30;;;;;;;5.53;4.73;;;6.10;99.90;;;;;;7398810;19;20607;-85
2022/11/27 09:18:57;;;;;;;6.10;4.83;;;6.30;99.90;;;;;;7402403;19;20158;-85
2022/11/27 09:21:29;;;;;;;6.13;4.47;;;6.40;99.90;;;;;;7400088;19;20695;-84
2022/11/27 09:23:57;;;;;;;6.23;5.00;;;6.30;99.90;;;;;;7400074;19;20143;-83
2022/11/27 09:26:24;;;;;;;7.23;4.80;;;6.30;99.90;;;;;;7399535;19;20587;-86
2022/11/27 09:28:51;;;;;;;7.97;5.13;;;6.50;99.90;;;;;;7405997;19;20158;-84
2022/11/27 09:31:21;;;;;;;5.03;4.40;;;6.50;99.90;;;;;;7404799;19;20157;-83
2022/11/27 09:33:57;;;;;;;4.83;3.90;;;6.50;99.90;;;;;;7406477;19;20486;-83
2022/11/27 09:36:24;;;;;;;6.17;4.97;;;6.50;99.90;;;;;;7409401;19;20130;-85
2022/11/27 09:38:51;;;;;;;6.97;4.90;;;6.50;99.90;;;;;;7413656;19;20147;-88
2022/11/27 09:41:35;;;;;;;8.30;5.53;;;6.40;99.90;;;;;;7401130;19;20884;-86
2022/11/27 09:44:25;;;;;;;6.97;5.27;;;6.60;99.90;;;;;;7395330;19;20181;-89
2022/11/27 09:46:53;;;;;;;7.17;5.93;;;6.70;99.90;;;;;;7398431;19;20143;-88
2022/11/27 09:49:51;;;;;;;7.30;5.63;;;6.60;99.90;;;;;;7398020;19;20130;-87
2022/11/27 09:52:25;;;;;;;7.93;5.33;;;6.50;99.90;;;;;;7392011;19;20155;-87
2022/11/27 09:55:16;;;;;;;7.13;5.33;;;6.50;99.90;;;;;;7394810;19;20146;-84
2022/11/27 09:57:50;;;;;;;9.60;6.43;;;6.60;99.90;;;;;;7395797;19;20161;-84
2022/11/27 10:00:19;;;;;;;6.83;5.23;;;6.50;99.90;;;;;;7397157;19;20239;-83
2022/11/27 10:02:45;;;;;;;10.77;5.43;;;6.50;99.90;;;;;;7397110;19;20218;-85
2022/11/27 10:05:20;;;;;;;8.47;5.60;;;6.50;99.90;;;;;;7397878;19;20157;-84
2022/11/27 10:08:04;;;;;;;7.73;5.10;;;6.50;99.90;;;;;;7398848;19;20681;-83
2022/11/27 10:10:38;;;;;;;8.23;5.20;;;6.60;99.90;;;;;;7397935;19;20155;-85
2022/11/27 10:13:22;;;;;;;6.50;5.17;;;6.70;99.90;;;;;;7397479;19;20210;-83
2022/11/27 10:15:58;;;;;;;8.20;5.53;;;6.80;99.90;;;;;;7398376;19;20206;-84
2022/11/27 10:18:46;;;;;;;8.43;5.80;;;6.80;99.90;;;;;;7396120;19;20152;-84
2022/11/27 10:21:18;;;;;;;10.50;6.83;;;6.80;99.90;;;;;;7396970;19;20140;-84
2022/11/27 10:23:56;;;;;;;7.57;5.60;;;6.80;99.90;;;;;;7397641;19;20135;-84
2022/11/27 10:26:37;;;;;;;7.47;5.37;;;6.80;99.90;;;;;;7398693;19;20139;-85
2022/11/27 10:29:22;;;;;;;10.57;5.80;;;6.90;99.90;;;;;;7397911;19;20138;-83
2022/11/27 10:31:57;;;;;;;9.87;5.80;;;6.80;99.90;;;;;;7396334;19;20138;-84
2022/11/27 10:34:55;;;;;;;8.70;5.53;;;6.90;99.90;;;;;;7397001;19;20590;-83
2022/11/27 10:37:26;;;;;;;8.53;6.37;;;6.90;99.90;;;;;;7394220;19;20222;-84
2022/11/27 10:40:12;;;;;;;8.87;7.27;;;6.80;99.90;;;;;;7397245;19;20606;-83
2022/11/27 10:42:53;;;;;;;6.83;5.43;;;7.20;99.90;;;;;;7393746;19;20170;-83
2022/11/27 10:45:43;;;;;;;9.23;5.97;;;7.00;99.90;;;;;;7392387;19;20459;-84
2022/11/27 10:48:10;;;;;;;8.87;6.00;;;7.20;99.90;;;;;;7391172;19;20127;-82
2022/11/27 10:50:36;;;;;;;8.07;6.10;;;7.30;99.90;;;;;;7387478;19;20150;-83
2022/11/27 10:53:06;;;;;;;7.57;5.93;;;7.30;99.90;;;;;;7392222;19;20262;-82
2022/11/27 10:55:59;;;;;;;8.40;6.10;;;7.30;99.90;;;;;;7389571;19;20159;-83
2022/11/27 10:58:57;;;;;;;9.03;6.17;;;7.50;99.90;;;;;;7390267;19;20173;-82
2022/11/27 11:01:25;;;;;;;9.13;6.17;;;7.50;99.90;;;;;;7391496;19;20982;-82
2022/11/27 11:04:14;;;;;;;8.23;6.43;;;7.50;99.90;;;;;;7390794;19;20599;-83
2022/11/27 11:06:45;;;;;;;9.73;6.97;;;7.60;99.90;;;;;;7392904;19;20143;-81
2022/11/27 11:09:33;;;;;;;9.77;6.73;;;7.70;99.90;;;;;;7387788;19;20161;-82
2022/11/27 11:12:19;;;;;;;10.63;6.17;;;7.90;99.90;;;;;;7394336;19;20146;-81
2022/11/27 11:14:53;;;;;;;7.20;5.77;;;7.90;99.90;;;;;;7394368;19;20135;-82
2022/11/27 11:17:37;;;;;;;12.03;6.33;;;7.90;99.90;;;;;;7394328;19;20138;-81
2022/11/27 11:20:20;;;;;;;9.77;6.53;;;8.00;99.90;;;;;;7395284;19;20126;-82
2022/11/27 11:22:46;;;;;;;12.53;6.70;;;8.10;99.90;;;;;;7394998;19;20563;-82
2022/11/27 11:25:17;;;;;;;8.50;5.83;;;8.10;99.90;;;;;;7394154;19;20139;-82
2022/11/27 11:27:45;;;;;;;11.20;7.37;;;8.10;99.90;;;;;;7393268;19;20130;-82
2022/11/27 11:30:25;;;;;;;10.37;6.83;;;8.40;99.90;;;;;;7392768;19;20139;-82
2022/11/27 11:32:58;;;;;;;7.47;5.20;;;8.30;99.90;;;;;;7392810;19;20614;-82
2022/11/27 11:35:34;;;;;;;6.43;5.43;;;8.20;99.90;;;;;;7392487;19;20146;-80
2022/11/27 11:38:04;;;;;;;6.27;4.77;;;8.10;99.90;;;;;;7391759;19;20158;-83
2022/11/27 11:40:36;;;;;;;6.30;5.20;;;8.30;99.90;;;;;;7394233;19;20139;-81
2022/11/27 11:43:22;;;;;;;7.63;5.07;;;8.50;99.90;;;;;;7393032;19;20156;-81
2022/11/27 11:45:48;;;;;;;5.80;4.60;;;8.50;99.90;;;;;;7393291;19;20135;-85
2022/11/27 11:48:24;;;;;;;9.17;5.87;;;8.30;99.90;;;;;;7393373;19;20148;-85
2022/11/27 11:50:52;;;;;;;8.03;5.60;;;8.40;99.90;;;;;;7392328;19;20142;-85
2022/11/27 11:53:43;;;;;;;7.40;5.90;;;8.50;99.90;;;;;;7393675;19;20154;-86
2022/11/27 11:56:32;;;;;;;7.00;4.77;;;8.60;99.90;;;;;;7393535;19;20182;-82
2022/11/27 11:59:11;;;;;;;6.27;4.60;;;8.60;99.90;;;;;;7394269;19;20654;-84
2022/11/27 12:01:55;;;;;;;5.00;4.13;;;8.60;99.90;;;;;;7395500;19;20146;-84
2022/11/27 12:04:35;;;;;;;5.00;4.20;;;8.50;99.90;;;;;;7398995;19;20130;-85
2022/11/27 12:07:01;;;;;;;4.97;4.13;;;8.70;99.90;;;;;;7402975;19;20126;-85
2022/11/27 12:09:35;;;;;;;6.23;4.20;;;8.90;99.90;;;;;;7403751;19;20610;-84
2022/11/27 12:12:04;;;;;;;5.30;3.63;;;9.10;99.90;;;;;;7402498;19;20156;-83
2022/11/27 12:14:45;;;;;;;5.23;3.47;;;9.00;99.90;;;;;;7400235;19;20143;-83
2022/11/27 12:17:15;;;;;;;5.00;3.27;;;9.20;99.90;;;;;;7400692;19;20150;-82
2022/11/27 12:20:00;;;;;;;4.20;3.00;;;9.20;99.90;;;;;;7400496;19;20467;-84
2022/11/27 12:22:44;;;;;;;3.23;2.77;;;9.30;99.90;;;;;;7404767;19;20156;-86
2022/11/27 12:26:04;;;;;;;3.77;2.60;;;9.60;99.90;;;;;;7401366;19;20210;-85
2022/11/27 12:28:45;;;;;;;2.90;2.20;;;9.70;99.90;;;;;;7398746;19;20146;-82
2022/11/27 12:31:35;;;;;;;2.13;1.90;;;9.60;99.90;;;;;;7401484;19;20146;-85
2022/11/27 12:34:17;;;;;;;4.97;2.97;;;9.60;99.90;;;;;;7400515;19;20146;-83
2022/11/27 12:37:30;;;;;;;3.83;2.80;;;9.40;99.90;;;;;;7400950;19;20143;-87
2022/11/27 12:40:13;;;;;;;3.93;2.60;;;9.50;99.90;;;;;;7402270;19;20175;-86
2022/11/27 12:43:11;;;;;;;4.17;3.23;;;9.80;99.90;;;;;;7400756;19;20534;-84
2022/11/27 12:45:42;;;;;;;5.20;2.83;;;9.60;99.90;;;;;;7401967;19;20486;-87
2022/11/27 12:48:33;;;;;;;4.07;3.00;;;9.30;99.90;;;;;;7402749;19;20135;-86
2022/11/27 12:51:21;;;;;;;3.33;2.53;;;9.70;99.90;;;;;;7402694;19;20168;-87
2022/11/27 12:53:59;;;;;;;8.53;4.73;;;9.70;99.90;;;;;;7401946;19;20742;-86
2022/11/27 12:56:49;;;;;;;5.37;3.07;;;9.30;99.90;;;;;;7397996;19;20932;-88
2022/11/27 12:59:30;;;;;;;7.37;3.30;;;9.40;99.90;;;;;;7399236;19;20146;-87
2022/11/27 13:02:02;;;;;;;4.40;3.20;;;9.20;99.90;;;;;;7401666;19;20213;-86
2022/11/27 13:04:53;;;;;;;7.23;3.30;;;9.10;99.90;;;;;;7398445;19;20175;-86
2022/11/27 13:07:27;;;;;;;4.80;2.97;;;9.00;99.90;;;;;;7399971;19;20143;-86
2022/11/27 13:10:08;;;;;;;3.20;2.63;;;9.10;99.90;;;;;;7400026;19;20161;-86
2022/11/27 13:12:40;;;;;;;3.87;2.90;;;9.00;99.90;;;;;;7399235;19;20151;-87
2022/11/27 13:15:17;;;;;;;4.67;2.80;;;9.00;99.90;;;;;;7398575;19;20146;-87
2022/11/27 13:17:48;;;;;;;4.57;3.10;;;9.00;99.90;;;;;;7399012;19;20504;-86